sensor_id;sensor_type;location;lat;lon;timestamp;temperature;humidity
41904;DHT22;27586;51.124;4.182;2022-12-18T00:01:06;-1.80;99.90
41904;DHT22;27586;51.124;4.182;2022-12-18T00:03:38;-1.80;99.90
41904;DHT22;27586;51.124;4.182;2022-12-18T00:06:07;-1.80;99.90
41904;DHT22;27586;51.124;4.182;2022-12-18T00:08:34;-1.80;99.90
41904;DHT22;27586;51.124;4.182;2022-12-18T00:11:08;-1.80;99.90
41904;DHT22;27586;51.124;4.182;2022-12-18T00:13:35;-1.90;99.90
41904;DHT22;27586;51.124;4.182;2022-12-18T00:16:03;-1.90;99.90
41904;DHT22;27586;51.124;4.182;2022-12-18T00:18:30;-1.90;99.90
41904;DHT22;27586;51.124;4.182;2022-12-18T00:21:03;-1.80;99.90
41904;DHT22;27586;51.124;4.182;2022-12-18T00:23:30;-1.80;99.90
41904;DHT22;27586;51.124;4.182;2022-12-18T00:26:00;-1.70;99.90
41904;DHT22;27586;51.124;4.182;2022-12-18T00:28:26;-1.50;99.90
41904;DHT22;27586;51.124;4.182;2022-12-18T00:31:03;-1.70;99.90
41904;DHT22;27586;51.124;4.182;2022-12-18T00:33:29;-1.80;99.90
41904;DHT22;27586;51.124;4.182;2022-12-18T00:36:03;-1.80;99.90
41904;DHT22;27586;51.124;4.182;2022-12-18T00:38:29;-1.80;99.90
41904;DHT22;27586;51.124;4.182;2022-12-18T00:40:55;-1.90;99.90
41904;DHT22;27586;51.124;4.182;2022-12-18T00:43:21;-2.00;99.90
41904;DHT22;27586;51.124;4.182;2022-12-18T00:45:46;-2.00;99.90
41904;DHT22;27586;51.124;4.182;2022-12-18T00:48:12;-2.10;99.90
41904;DHT22;27586;51.124;4.182;2022-12-18T00:50:38;-1.90;99.90
41904;DHT22;27586;51.124;4.182;2022-12-18T00:53:04;-1.80;99.90
41904;DHT22;27586;51.124;4.182;2022-12-18T00:55:30;-1.70;99.90
41904;DHT22;27586;51.124;4.182;2022-12-18T00:57:55;-1.60;99.90
41904;DHT22;27586;51.124;4.182;2022-12-18T01:00:22;-1.50;99.90
41904;DHT22;27586;51.124;4.182;2022-12-18T01:02:47;-1.50;99.90
41904;DHT22;27586;51.124;4.182;2022-12-18T01:05:14;-1.50;99.90
41904;DHT22;27586;51.124;4.182;2022-12-18T01:07:40;-1.70;99.90
41904;DHT22;27586;51.124;4.182;2022-12-18T01:10:07;-2.00;99.90
41904;DHT22;27586;51.124;4.182;2022-12-18T01:12:33;-2.10;99.90
41904;DHT22;27586;51.124;4.182;2022-12-18T01:14:59;-2.20;99.90
41904;DHT22;27586;51.124;4.182;2022-12-18T01:17:25;-2.30;99.90
41904;DHT22;27586;51.124;4.182;2022-12-18T01:19:50;-2.30;99.90
41904;DHT22;27586;51.124;4.182;2022-12-18T01:22:16;-2.40;99.90
41904;DHT22;27586;51.124;4.182;2022-12-18T01:24:42;-2.30;99.90
41904;DHT22;27586;51.124;4.182;2022-12-18T01:27:07;-2.50;99.90
41904;DHT22;27586;51.124;4.182;2022-12-18T01:29:33;-2.50;99.90
41904;DHT22;27586;51.124;4.182;2022-12-18T01:31:58;-2.50;99.90
41904;DHT22;27586;51.124;4.182;2022-12-18T01:34:24;-2.50;99.90
41904;DHT22;27586;51.124;4.182;2022-12-18T01:36:50;-2.40;99.90
41904;DHT22;27586;51.124;4.182;2022-12-18T01:39:18;-2.30;99.90
41904;DHT22;27586;51.124;4.182;2022-12-18T01:41:45;-2.40;99.90
41904;DHT22;27586;51.124;4.182;2022-12-18T01:49:54;-2.30;99.90
41904;DHT22;27586;51.124;4.182;2022-12-18T01:52:21;-2.30;99.90
41904;DHT22;27586;51.124;4.182;2022-12-18T01:54:49;-2.30;99.90
41904;DHT22;27586;51.124;4.182;2022-12-18T01:57:16;-2.30;99.90
41904;DHT22;27586;51.124;4.182;2022-12-18T01:59:45;-2.30;99.90
41904;DHT22;27586;51.124;4.182;2022-12-18T02:02:13;-2.40;99.90
41904;DHT22;27586;51.124;4.182;2022-12-18T02:04:39;-2.30;99.90
41904;DHT22;27586;51.124;4.182;2022-12-18T02:10:13;-2.30;99.90
41904;DHT22;27586;51.124;4.182;2022-12-18T02:15:39;-2.40;99.90
41904;DHT22;27586;51.124;4.182;2022-12-18T02:18:14;-2.30;99.90
41904;DHT22;27586;51.124;4.182;2022-12-18T02:20:48;-2.40;99.90
41904;DHT22;27586;51.124;4.182;2022-12-18T02:28:35;-2.30;99.90
41904;DHT22;27586;51.124;4.182;2022-12-18T02:31:04;-2.30;99.90
41904;DHT22;27586;51.124;4.182;2022-12-18T02:33:33;-2.30;99.90
41904;DHT22;27586;51.124;4.182;2022-12-18T02:36:00;-2.30;99.90
41904;DHT22;27586;51.124;4.182;2022-12-18T02:38:30;-2.20;99.90
41904;DHT22;27586;51.124;4.182;2022-12-18T02:40:57;-2.30;99.90
41904;DHT22;27586;51.124;4.182;2022-12-18T02:43:23;-2.30;99.90
41904;DHT22;27586;51.124;4.182;2022-12-18T02:45:57;-2.40;99.90
41904;DHT22;27586;51.124;4.182;2022-12-18T02:48:28;-2.50;99.90
41904;DHT22;27586;51.124;4.182;2022-12-18T02:51:17;-2.50;99.90
41904;DHT22;27586;51.124;4.182;2022-12-18T02:53:56;-2.60;99.90
41904;DHT22;27586;51.124;4.182;2022-12-18T02:56:29;-2.50;99.90
41904;DHT22;27586;51.124;4.182;2022-12-18T02:59:10;-2.60;99.90
41904;DHT22;27586;51.124;4.182;2022-12-18T03:01:46;-2.50;99.90
41904;DHT22;27586;51.124;4.182;2022-12-18T03:04:24;-2.50;99.90
41904;DHT22;27586;51.124;4.182;2022-12-18T03:06:56;-2.60;99.90
41904;DHT22;27586;51.124;4.182;2022-12-18T03:09:36;-2.80;99.90
41904;DHT22;27586;51.124;4.182;2022-12-18T03:12:16;-2.90;99.90
41904;DHT22;27586;51.124;4.182;2022-12-18T03:17:44;-2.60;99.90
41904;DHT22;27586;51.124;4.182;2022-12-18T03:20:15;-2.60;99.90
41904;DHT22;27586;51.124;4.182;2022-12-18T03:22:43;-2.60;99.90
41904;DHT22;27586;51.124;4.182;2022-12-18T03:25:12;-2.30;99.90
41904;DHT22;27586;51.124;4.182;2022-12-18T03:27:43;-2.20;99.90
41904;DHT22;27586;51.124;4.182;2022-12-18T03:30:12;-2.20;99.90
41904;DHT22;27586;51.124;4.182;2022-12-18T03:33:00;-2.30;99.90
41904;DHT22;27586;51.124;4.182;2022-12-18T03:35:31;-2.20;99.90
41904;DHT22;27586;51.124;4.182;2022-12-18T03:37:59;-2.50;99.90
41904;DHT22;27586;51.124;4.182;2022-12-18T03:40:31;-2.50;99.90
41904;DHT22;27586;51.124;4.182;2022-12-18T03:43:39;-2.30;99.90
41904;DHT22;27586;51.124;4.182;2022-12-18T03:46:08;-2.30;99.90
41904;DHT22;27586;51.124;4.182;2022-12-18T03:48:44;-2.40;99.90
41904;DHT22;27586;51.124;4.182;2022-12-18T03:51:29;-2.50;99.90
41904;DHT22;27586;51.124;4.182;2022-12-18T03:54:02;-2.60;99.90
41904;DHT22;27586;51.124;4.182;2022-12-18T03:56:32;-2.70;99.90
41904;DHT22;27586;51.124;4.182;2022-12-18T03:59:01;-2.70;99.90
41904;DHT22;27586;51.124;4.182;2022-12-18T04:01:32;-2.60;99.90
41904;DHT22;27586;51.124;4.182;2022-12-18T04:04:00;-2.50;99.90
41904;DHT22;27586;51.124;4.182;2022-12-18T04:06:28;-2.50;99.90
41904;DHT22;27586;51.124;4.182;2022-12-18T04:08:54;-2.80;99.90
41904;DHT22;27586;51.124;4.182;2022-12-18T04:11:21;-2.70;99.90
41904;DHT22;27586;51.124;4.182;2022-12-18T04:13:47;-2.70;99.90
41904;DHT22;27586;51.124;4.182;2022-12-18T04:16:13;-2.70;99.90
41904;DHT22;27586;51.124;4.182;2022-12-18T04:18:38;-2.50;99.90
41904;DHT22;27586;51.124;4.182;2022-12-18T04:21:04;-2.60;99.90
41904;DHT22;27586;51.124;4.182;2022-12-18T04:23:30;-2.60;99.90
41904;DHT22;27586;51.124;4.182;2022-12-18T04:25:55;-2.60;99.90
41904;DHT22;27586;51.124;4.182;2022-12-18T04:28:21;-2.50;99.90
41904;DHT22;27586;51.124;4.182;2022-12-18T04:30:48;-2.50;99.90
41904;DHT22;27586;51.124;4.182;2022-12-18T04:33:17;-2.50;99.90
41904;DHT22;27586;51.124;4.182;2022-12-18T04:35:43;-2.60;99.90
41904;DHT22;27586;51.124;4.182;2022-12-18T04:38:09;-2.60;99.90
41904;DHT22;27586;51.124;4.182;2022-12-18T04:40:38;-2.70;99.90
41904;DHT22;27586;51.124;4.182;2022-12-18T04:43:05;-2.80;99.90
41904;DHT22;27586;51.124;4.182;2022-12-18T04:45:31;-2.80;99.90
41904;DHT22;27586;51.124;4.182;2022-12-18T04:47:58;-2.80;99.90
41904;DHT22;27586;51.124;4.182;2022-12-18T04:50:24;-2.80;99.90
41904;DHT22;27586;51.124;4.182;2022-12-18T04:52:50;-2.80;99.90
41904;DHT22;27586;51.124;4.182;2022-12-18T04:55:15;-2.80;99.90
41904;DHT22;27586;51.124;4.182;2022-12-18T04:57:41;-2.80;99.90
41904;DHT22;27586;51.124;4.182;2022-12-18T05:00:07;-2.90;99.90
41904;DHT22;27586;51.124;4.182;2022-12-18T05:02:33;-3.00;99.90
41904;DHT22;27586;51.124;4.182;2022-12-18T05:04:58;-3.10;99.90
41904;DHT22;27586;51.124;4.182;2022-12-18T05:07:24;-3.10;99.90
41904;DHT22;27586;51.124;4.182;2022-12-18T05:09:53;-3.20;99.90
41904;DHT22;27586;51.124;4.182;2022-12-18T05:12:18;-3.20;99.90
41904;DHT22;27586;51.124;4.182;2022-12-18T05:14:44;-3.30;99.90
41904;DHT22;27586;51.124;4.182;2022-12-18T05:17:10;-3.30;99.90
41904;DHT22;27586;51.124;4.182;2022-12-18T05:19:35;-3.10;99.90
41904;DHT22;27586;51.124;4.182;2022-12-18T05:22:01;-3.10;99.90
41904;DHT22;27586;51.124;4.182;2022-12-18T05:24:27;-3.10;99.90
41904;DHT22;27586;51.124;4.182;2022-12-18T05:26:52;-2.90;99.90
41904;DHT22;27586;51.124;4.182;2022-12-18T05:29:18;-2.90;99.90
41904;DHT22;27586;51.124;4.182;2022-12-18T05:31:44;-3.00;99.90
41904;DHT22;27586;51.124;4.182;2022-12-18T05:34:09;-3.00;99.90
41904;DHT22;27586;51.124;4.182;2022-12-18T05:36:35;-2.90;99.90
41904;DHT22;27586;51.124;4.182;2022-12-18T05:39:01;-3.00;99.90
41904;DHT22;27586;51.124;4.182;2022-12-18T05:41:27;-2.90;99.90
41904;DHT22;27586;51.124;4.182;2022-12-18T05:43:52;-2.90;99.90
41904;DHT22;27586;51.124;4.182;2022-12-18T05:46:18;-2.70;99.90
41904;DHT22;27586;51.124;4.182;2022-12-18T05:48:44;-2.70;99.90
41904;DHT22;27586;51.124;4.182;2022-12-18T05:51:12;-2.60;99.90
41904;DHT22;27586;51.124;4.182;2022-12-18T05:53:39;-2.70;99.90
41904;DHT22;27586;51.124;4.182;2022-12-18T05:56:07;-2.60;99.90
41904;DHT22;27586;51.124;4.182;2022-12-18T05:58:33;-2.50;99.90
41904;DHT22;27586;51.124;4.182;2022-12-18T06:01:08;-2.50;99.90
41904;DHT22;27586;51.124;4.182;2022-12-18T06:03:34;-2.40;99.90
41904;DHT22;27586;51.124;4.182;2022-12-18T06:05:59;-2.50;99.90
41904;DHT22;27586;51.124;4.182;2022-12-18T06:08:25;-2.50;99.90
41904;DHT22;27586;51.124;4.182;2022-12-18T06:10:51;-2.70;99.90
41904;DHT22;27586;51.124;4.182;2022-12-18T06:13:20;-2.90;99.90
41904;DHT22;27586;51.124;4.182;2022-12-18T06:15:46;-3.00;99.90
41904;DHT22;27586;51.124;4.182;2022-12-18T06:18:12;-3.20;99.90
41904;DHT22;27586;51.124;4.182;2022-12-18T06:20:37;-3.20;99.90
41904;DHT22;27586;51.124;4.182;2022-12-18T06:23:05;-3.20;99.90
41904;DHT22;27586;51.124;4.182;2022-12-18T06:25:31;-3.30;99.90
41904;DHT22;27586;51.124;4.182;2022-12-18T06:27:58;-3.40;99.90
41904;DHT22;27586;51.124;4.182;2022-12-18T06:30:24;-3.40;99.90
41904;DHT22;27586;51.124;4.182;2022-12-18T06:32:50;-3.40;99.90
41904;DHT22;27586;51.124;4.182;2022-12-18T06:35:16;-3.30;99.90
41904;DHT22;27586;51.124;4.182;2022-12-18T06:37:41;-3.30;99.90
41904;DHT22;27586;51.124;4.182;2022-12-18T06:40:08;-3.40;99.90
41904;DHT22;27586;51.124;4.182;2022-12-18T06:42:33;-3.40;99.90
41904;DHT22;27586;51.124;4.182;2022-12-18T06:44:59;-3.40;99.90
41904;DHT22;27586;51.124;4.182;2022-12-18T06:47:25;-3.40;99.90
41904;DHT22;27586;51.124;4.182;2022-12-18T06:49:50;-3.40;99.90
41904;DHT22;27586;51.124;4.182;2022-12-18T06:52:16;-3.30;99.90
41904;DHT22;27586;51.124;4.182;2022-12-18T06:54:41;-3.20;99.90
41904;DHT22;27586;51.124;4.182;2022-12-18T06:57:07;-3.20;99.90
41904;DHT22;27586;51.124;4.182;2022-12-18T06:59:33;-3.10;99.90
41904;DHT22;27586;51.124;4.182;2022-12-18T07:01:58;-3.00;99.90
41904;DHT22;27586;51.124;4.182;2022-12-18T07:04:28;-3.10;99.90
41904;DHT22;27586;51.124;4.182;2022-12-18T07:06:55;-3.10;99.90
41904;DHT22;27586;51.124;4.182;2022-12-18T07:09:20;-3.10;99.90
41904;DHT22;27586;51.124;4.182;2022-12-18T07:11:46;-3.20;99.90
41904;DHT22;27586;51.124;4.182;2022-12-18T07:14:14;-3.20;99.90
41904;DHT22;27586;51.124;4.182;2022-12-18T07:16:40;-3.20;99.90
41904;DHT22;27586;51.124;4.182;2022-12-18T07:19:06;-3.40;99.90
41904;DHT22;27586;51.124;4.182;2022-12-18T07:21:31;-3.40;99.90
41904;DHT22;27586;51.124;4.182;2022-12-18T07:23:57;-3.50;99.90
41904;DHT22;27586;51.124;4.182;2022-12-18T07:26:23;-3.40;99.90
41904;DHT22;27586;51.124;4.182;2022-12-18T07:28:49;-3.40;99.90
41904;DHT22;27586;51.124;4.182;2022-12-18T07:31:20;-3.30;99.90
41904;DHT22;27586;51.124;4.182;2022-12-18T07:33:46;-3.30;99.90
41904;DHT22;27586;51.124;4.182;2022-12-18T07:36:13;-3.30;99.90
41904;DHT22;27586;51.124;4.182;2022-12-18T07:38:39;-3.30;99.90
41904;DHT22;27586;51.124;4.182;2022-12-18T07:41:10;-3.30;99.90
41904;DHT22;27586;51.124;4.182;2022-12-18T07:43:37;-3.40;99.90
41904;DHT22;27586;51.124;4.182;2022-12-18T07:46:04;-3.30;99.90
41904;DHT22;27586;51.124;4.182;2022-12-18T07:48:30;-3.40;99.90
41904;DHT22;27586;51.124;4.182;2022-12-18T07:51:03;-3.30;99.90
41904;DHT22;27586;51.124;4.182;2022-12-18T07:53:29;-3.40;99.90
41904;DHT22;27586;51.124;4.182;2022-12-18T07:55:56;-3.40;99.90
41904;DHT22;27586;51.124;4.182;2022-12-18T07:58:22;-3.30;99.90
41904;DHT22;27586;51.124;4.182;2022-12-18T08:00:48;-3.40;99.90
41904;DHT22;27586;51.124;4.182;2022-12-18T08:03:14;-3.40;99.90
41904;DHT22;27586;51.124;4.182;2022-12-18T08:05:39;-3.30;99.90
41904;DHT22;27586;51.124;4.182;2022-12-18T08:08:05;-3.20;99.90
41904;DHT22;27586;51.124;4.182;2022-12-18T08:10:31;-3.30;99.90
41904;DHT22;27586;51.124;4.182;2022-12-18T08:12:56;-3.20;99.90
41904;DHT22;27586;51.124;4.182;2022-12-18T08:15:22;-3.20;99.90
41904;DHT22;27586;51.124;4.182;2022-12-18T08:17:47;-3.30;99.90
41904;DHT22;27586;51.124;4.182;2022-12-18T08:20:13;-3.20;99.90
41904;DHT22;27586;51.124;4.182;2022-12-18T08:22:43;-3.10;99.90
41904;DHT22;27586;51.124;4.182;2022-12-18T08:25:09;-3.00;99.90
41904;DHT22;27586;51.124;4.182;2022-12-18T08:27:35;-3.00;99.90
41904;DHT22;27586;51.124;4.182;2022-12-18T08:30:01;-3.00;99.90
41904;DHT22;27586;51.124;4.182;2022-12-18T08:32:27;-2.90;99.90
41904;DHT22;27586;51.124;4.182;2022-12-18T08:34:56;-2.90;99.90
41904;DHT22;27586;51.124;4.182;2022-12-18T08:37:21;-2.80;99.90
41904;DHT22;27586;51.124;4.182;2022-12-18T08:39:47;-2.80;99.90
41904;DHT22;27586;51.124;4.182;2022-12-18T08:42:13;-2.70;99.90
41904;DHT22;27586;51.124;4.182;2022-12-18T08:44:57;-2.60;99.90
41904;DHT22;27586;51.124;4.182;2022-12-18T08:47:22;-2.60;99.90
41904;DHT22;27586;51.124;4.182;2022-12-18T08:49:48;-2.50;99.90
41904;DHT22;27586;51.124;4.182;2022-12-18T08:52:14;-2.40;99.90
41904;DHT22;27586;51.124;4.182;2022-12-18T08:54:39;-2.30;99.90
41904;DHT22;27586;51.124;4.182;2022-12-18T08:57:05;-2.30;99.90
41904;DHT22;27586;51.124;4.182;2022-12-18T08:59:30;-2.20;99.90
41904;DHT22;27586;51.124;4.182;2022-12-18T09:01:56;-2.20;99.90
41904;DHT22;27586;51.124;4.182;2022-12-18T09:04:22;-2.20;99.90
41904;DHT22;27586;51.124;4.182;2022-12-18T09:06:48;-2.10;99.90
41904;DHT22;27586;51.124;4.182;2022-12-18T09:09:13;-2.00;99.90
41904;DHT22;27586;51.124;4.182;2022-12-18T09:11:39;-2.00;99.90
41904;DHT22;27586;51.124;4.182;2022-12-18T09:14:05;-2.00;99.90
41904;DHT22;27586;51.124;4.182;2022-12-18T09:16:31;-2.00;99.90
41904;DHT22;27586;51.124;4.182;2022-12-18T09:18:57;-2.00;99.90
41904;DHT22;27586;51.124;4.182;2022-12-18T09:21:32;-1.90;99.90
41904;DHT22;27586;51.124;4.182;2022-12-18T09:23:58;-1.90;99.90
41904;DHT22;27586;51.124;4.182;2022-12-18T09:26:25;-1.90;99.90
41904;DHT22;27586;51.124;4.182;2022-12-18T09:28:51;-2.00;99.90
41904;DHT22;27586;51.124;4.182;2022-12-18T09:31:18;-1.80;99.90
41904;DHT22;27586;51.124;4.182;2022-12-18T09:33:44;-1.70;99.90
41904;DHT22;27586;51.124;4.182;2022-12-18T09:36:13;-1.60;99.90
41904;DHT22;27586;51.124;4.182;2022-12-18T09:38:39;-1.60;99.90
41904;DHT22;27586;51.124;4.182;2022-12-18T09:44:04;-1.50;99.90
41904;DHT22;27586;51.124;4.182;2022-12-18T09:46:36;-1.60;99.90
41904;DHT22;27586;51.124;4.182;2022-12-18T09:49:05;-1.50;99.90
41904;DHT22;27586;51.124;4.182;2022-12-18T09:54:41;-1.40;99.90
41904;DHT22;27586;51.124;4.182;2022-12-18T09:57:28;-1.40;99.90
41904;DHT22;27586;51.124;4.182;2022-12-18T09:59:58;-1.30;99.90
41904;DHT22;27586;51.124;4.182;2022-12-18T10:02:29;-1.20;99.90
41904;DHT22;27586;51.124;4.182;2022-12-18T10:05:07;-1.20;99.90
41904;DHT22;27586;51.124;4.182;2022-12-18T10:10:43;-1.10;99.90
41904;DHT22;27586;51.124;4.182;2022-12-18T10:13:42;-1.20;99.90
41904;DHT22;27586;51.124;4.182;2022-12-18T10:16:25;-1.20;99.90
41904;DHT22;27586;51.124;4.182;2022-12-18T10:21:48;-1.30;99.90
41904;DHT22;27586;51.124;4.182;2022-12-18T10:26:48;-1.00;99.90
41904;DHT22;27586;51.124;4.182;2022-12-18T10:29:15;-1.00;99.90
41904;DHT22;27586;51.124;4.182;2022-12-18T10:31:42;-0.90;99.90
41904;DHT22;27586;51.124;4.182;2022-12-18T10:34:15;-0.90;99.90
41904;DHT22;27586;51.124;4.182;2022-12-18T10:36:41;-0.90;99.90
41904;DHT22;27586;51.124;4.182;2022-12-18T10:39:19;-0.90;99.90
41904;DHT22;27586;51.124;4.182;2022-12-18T10:41:45;-0.80;99.90
41904;DHT22;27586;51.124;4.182;2022-12-18T10:44:24;-0.70;99.90
41904;DHT22;27586;51.124;4.182;2022-12-18T10:46:54;-0.60;99.90
41904;DHT22;27586;51.124;4.182;2022-12-18T10:49:26;-0.40;99.90
41904;DHT22;27586;51.124;4.182;2022-12-18T10:52:17;-0.40;99.90
41904;DHT22;27586;51.124;4.182;2022-12-18T10:54:52;-0.40;99.90
41904;DHT22;27586;51.124;4.182;2022-12-18T10:57:39;-0.40;99.90
41904;DHT22;27586;51.124;4.182;2022-12-18T11:00:26;-0.30;99.90
41904;DHT22;27586;51.124;4.182;2022-12-18T11:02:53;-0.20;99.90
41904;DHT22;27586;51.124;4.182;2022-12-18T11:05:31;-0.20;99.90
41904;DHT22;27586;51.124;4.182;2022-12-18T11:07:59;-0.20;99.90
41904;DHT22;27586;51.124;4.182;2022-12-18T11:10:33;-0.10;99.90
41904;DHT22;27586;51.124;4.182;2022-12-18T11:13:31;-0.10;99.90
41904;DHT22;27586;51.124;4.182;2022-12-18T11:15:57;0.00;99.90
41904;DHT22;27586;51.124;4.182;2022-12-18T11:18:32;0.10;99.90
41904;DHT22;27586;51.124;4.182;2022-12-18T11:21:10;0.10;99.90
41904;DHT22;27586;51.124;4.182;2022-12-18T11:23:49;0.20;99.90
41904;DHT22;27586;51.124;4.182;2022-12-18T11:26:15;0.20;99.90
41904;DHT22;27586;51.124;4.182;2022-12-18T11:29:07;0.20;99.90
41904;DHT22;27586;51.124;4.182;2022-12-18T11:31:34;0.30;99.90
41904;DHT22;27586;51.124;4.182;2022-12-18T11:34:23;0.20;99.90
41904;DHT22;27586;51.124;4.182;2022-12-18T11:36:50;0.20;99.90
41904;DHT22;27586;51.124;4.182;2022-12-18T11:39:42;0.20;99.90
41904;DHT22;27586;51.124;4.182;2022-12-18T11:42:51;0.30;99.90
41904;DHT22;27586;51.124;4.182;2022-12-18T11:47:44;0.30;99.90
41904;DHT22;27586;51.124;4.182;2022-12-18T11:53:11;0.50;99.90
41904;DHT22;27586;51.124;4.182;2022-12-18T12:00:55;0.50;99.90
41904;DHT22;27586;51.124;4.182;2022-12-18T12:03:39;0.50;99.90
41904;DHT22;27586;51.124;4.182;2022-12-18T12:11:24;0.70;99.90
41904;DHT22;27586;51.124;4.182;2022-12-18T12:20:06;0.80;99.90
41904;DHT22;27586;51.124;4.182;2022-12-18T12:25:44;0.80;99.90
41904;DHT22;27586;51.124;4.182;2022-12-18T12:36:44;0.90;99.90
41904;DHT22;27586;51.124;4.182;2022-12-18T12:39:03;0.80;99.90
41904;DHT22;27586;51.124;4.182;2022-12-18T12:41:33;0.80;99.90
41904;DHT22;27586;51.124;4.182;2022-12-18T12:44:39;0.80;99.90
41904;DHT22;27586;51.124;4.182;2022-12-18T12:47:19;0.70;99.90
41904;DHT22;27586;51.124;4.182;2022-12-18T12:49:46;0.90;99.90
41904;DHT22;27586;51.124;4.182;2022-12-18T12:52:23;0.90;99.90
41904;DHT22;27586;51.124;4.182;2022-12-18T12:54:52;1.00;99.90
41904;DHT22;27586;51.124;4.182;2022-12-18T12:57:34;1.10;99.90
41904;DHT22;27586;51.124;4.182;2022-12-18T13:00:06;1.10;99.90
41904;DHT22;27586;51.124;4.182;2022-12-18T13:02:52;1.20;99.90
41904;DHT22;27586;51.124;4.182;2022-12-18T13:08:12;1.10;99.90
41904;DHT22;27586;51.124;4.182;2022-12-18T13:10:47;1.10;99.90
41904;DHT22;27586;51.124;4.182;2022-12-18T13:13:14;1.20;99.90
41904;DHT22;27586;51.124;4.182;2022-12-18T13:15:50;1.30;99.90
41904;DHT22;27586;51.124;4.182;2022-12-18T13:18:28;1.30;99.90
41904;DHT22;27586;51.124;4.182;2022-12-18T13:31:13;1.50;99.90
41904;DHT22;27586;51.124;4.182;2022-12-18T13:33:43;1.50;99.90
41904;DHT22;27586;51.124;4.182;2022-12-18T13:36:13;1.50;99.90
41904;DHT22;27586;51.124;4.182;2022-12-18T13:38:41;1.50;99.90
41904;DHT22;27586;51.124;4.182;2022-12-18T13:43:49;1.50;99.90
41904;DHT22;27586;51.124;4.182;2022-12-18T13:46:21;1.60;99.90
41904;DHT22;27586;51.124;4.182;2022-12-18T13:48:57;1.60;99.90
41904;DHT22;27586;51.124;4.182;2022-12-18T13:51:25;1.50;99.90
41904;DHT22;27586;51.124;4.182;2022-12-18T13:54:02;1.50;99.90
41904;DHT22;27586;51.124;4.182;2022-12-18T13:56:33;1.50;99.90
41904;DHT22;27586;51.124;4.182;2022-12-18T14:01:48;1.60;99.90
41904;DHT22;27586;51.124;4.182;2022-12-18T14:04:29;1.50;99.90
41904;DHT22;27586;51.124;4.182;2022-12-18T14:09:31;1.60;99.90
41904;DHT22;27586;51.124;4.182;2022-12-18T14:11:59;1.50;99.90
41904;DHT22;27586;51.124;4.182;2022-12-18T14:14:46;1.60;99.90
41904;DHT22;27586;51.124;4.182;2022-12-18T14:17:13;1.50;99.90
41904;DHT22;27586;51.124;4.182;2022-12-18T14:19:47;1.50;99.90
41904;DHT22;27586;51.124;4.182;2022-12-18T14:22:23;1.60;99.90
41904;DHT22;27586;51.124;4.182;2022-12-18T14:25:24;1.60;99.90
41904;DHT22;27586;51.124;4.182;2022-12-18T14:30:46;1.50;99.90
41904;DHT22;27586;51.124;4.182;2022-12-18T14:33:16;1.50;99.90
41904;DHT22;27586;51.124;4.182;2022-12-18T14:36:00;1.50;99.90
41904;DHT22;27586;51.124;4.182;2022-12-18T14:38:30;1.50;99.90
41904;DHT22;27586;51.124;4.182;2022-12-18T14:40:58;1.50;99.90
41904;DHT22;27586;51.124;4.182;2022-12-18T14:43:27;1.50;99.90
41904;DHT22;27586;51.124;4.182;2022-12-18T14:45:53;1.60;99.90
41904;DHT22;27586;51.124;4.182;2022-12-18T14:51:02;1.60;99.90
41904;DHT22;27586;51.124;4.182;2022-12-18T14:53:34;1.60;99.90
41904;DHT22;27586;51.124;4.182;2022-12-18T14:56:02;1.70;99.90
41904;DHT22;27586;51.124;4.182;2022-12-18T14:58:28;1.70;99.90
41904;DHT22;27586;51.124;4.182;2022-12-18T15:00:53;1.60;99.90
41904;DHT22;27586;51.124;4.182;2022-12-18T15:03:21;1.60;99.90
41904;DHT22;27586;51.124;4.182;2022-12-18T15:05:50;1.60;99.90
41904;DHT22;27586;51.124;4.182;2022-12-18T15:08:36;1.60;99.90
41904;DHT22;27586;51.124;4.182;2022-12-18T15:11:03;1.60;99.90
41904;DHT22;27586;51.124;4.182;2022-12-18T15:13:29;1.60;99.90
41904;DHT22;27586;51.124;4.182;2022-12-18T15:15:57;1.60;99.90
41904;DHT22;27586;51.124;4.182;2022-12-18T15:18:32;1.60;99.90
41904;DHT22;27586;51.124;4.182;2022-12-18T15:21:06;1.60;99.90
41904;DHT22;27586;51.124;4.182;2022-12-18T15:26:15;1.60;99.90
41904;DHT22;27586;51.124;4.182;2022-12-18T15:34:27;1.60;99.90
41904;DHT22;27586;51.124;4.182;2022-12-18T15:36:32;1.70;99.90
41904;DHT22;27586;51.124;4.182;2022-12-18T15:39:02;1.70;99.90
41904;DHT22;27586;51.124;4.182;2022-12-18T15:41:31;1.70;99.90
41904;DHT22;27586;51.124;4.182;2022-12-18T15:43:57;1.70;99.90
41904;DHT22;27586;51.124;4.182;2022-12-18T15:46:24;1.70;99.90
41904;DHT22;27586;51.124;4.182;2022-12-18T15:48:52;1.80;99.90
41904;DHT22;27586;51.124;4.182;2022-12-18T15:51:43;1.80;99.90
41904;DHT22;27586;51.124;4.182;2022-12-18T15:54:12;1.80;99.90
41904;DHT22;27586;51.124;4.182;2022-12-18T15:56:38;1.80;99.90
41904;DHT22;27586;51.124;4.182;2022-12-18T15:59:23;1.80;99.90
41904;DHT22;27586;51.124;4.182;2022-12-18T16:01:50;1.70;99.90
41904;DHT22;27586;51.124;4.182;2022-12-18T16:04:18;1.70;99.90
41904;DHT22;27586;51.124;4.182;2022-12-18T16:06:48;1.80;99.90
41904;DHT22;27586;51.124;4.182;2022-12-18T16:09:14;1.80;99.90
41904;DHT22;27586;51.124;4.182;2022-12-18T16:11:42;1.80;99.90
41904;DHT22;27586;51.124;4.182;2022-12-18T16:14:22;1.90;99.90
41904;DHT22;27586;51.124;4.182;2022-12-18T16:16:51;1.90;99.90
41904;DHT22;27586;51.124;4.182;2022-12-18T16:19:17;1.90;99.90
41904;DHT22;27586;51.124;4.182;2022-12-18T16:21:43;1.90;99.90
41904;DHT22;27586;51.124;4.182;2022-12-18T16:24:28;1.90;99.90
41904;DHT22;27586;51.124;4.182;2022-12-18T16:26:57;2.00;99.90
41904;DHT22;27586;51.124;4.182;2022-12-18T16:29:25;2.00;99.90
41904;DHT22;27586;51.124;4.182;2022-12-18T16:31:57;1.90;99.90
41904;DHT22;27586;51.124;4.182;2022-12-18T16:34:26;1.90;99.90
41904;DHT22;27586;51.124;4.182;2022-12-18T16:36:57;2.00;99.90
41904;DHT22;27586;51.124;4.182;2022-12-18T16:39:24;2.00;99.90
41904;DHT22;27586;51.124;4.182;2022-12-18T16:41:49;2.10;99.90
41904;DHT22;27586;51.124;4.182;2022-12-18T16:44:16;2.10;99.90
41904;DHT22;27586;51.124;4.182;2022-12-18T16:46:41;2.00;99.90
41904;DHT22;27586;51.124;4.182;2022-12-18T16:49:17;2.00;99.90
41904;DHT22;27586;51.124;4.182;2022-12-18T16:51:44;1.90;99.90
41904;DHT22;27586;51.124;4.182;2022-12-18T16:54:10;2.00;99.90
41904;DHT22;27586;51.124;4.182;2022-12-18T16:56:36;1.90;99.90
41904;DHT22;27586;51.124;4.182;2022-12-18T16:59:03;2.00;99.90
41904;DHT22;27586;51.124;4.182;2022-12-18T17:01:33;2.10;99.90
41904;DHT22;27586;51.124;4.182;2022-12-18T17:04:01;2.00;99.90
41904;DHT22;27586;51.124;4.182;2022-12-18T17:06:30;2.00;99.90
41904;DHT22;27586;51.124;4.182;2022-12-18T17:08:57;2.00;99.90
41904;DHT22;27586;51.124;4.182;2022-12-18T17:11:27;2.10;99.90
41904;DHT22;27586;51.124;4.182;2022-12-18T17:13:53;2.10;99.90
41904;DHT22;27586;51.124;4.182;2022-12-18T17:16:19;2.10;99.90
41904;DHT22;27586;51.124;4.182;2022-12-18T17:18:45;2.20;99.90
41904;DHT22;27586;51.124;4.182;2022-12-18T17:21:14;2.20;99.90
41904;DHT22;27586;51.124;4.182;2022-12-18T17:23:43;2.20;99.90
41904;DHT22;27586;51.124;4.182;2022-12-18T17:26:09;2.20;99.90
41904;DHT22;27586;51.124;4.182;2022-12-18T17:28:37;2.30;99.90
41904;DHT22;27586;51.124;4.182;2022-12-18T17:31:14;2.40;99.90
41904;DHT22;27586;51.124;4.182;2022-12-18T17:33:41;2.30;99.90